createdAt,value
2023-05-11T00:01:36.962Z,92.60
2023-05-11T00:03:38.619Z,92.47
2023-05-11T00:05:40.275Z,93.01
2023-05-11T00:07:41.809Z,92.26
2023-05-11T00:09:43.379Z,92.50
2023-05-11T00:11:44.890Z,93.76
2023-05-11T00:13:46.683Z,93.81
2023-05-11T00:15:48.225Z,93.43
2023-05-11T00:17:49.789Z,93.39
2023-05-11T00:19:51.341Z,93.66
2023-05-11T00:21:52.919Z,93.84
2023-05-11T00:23:54.591Z,92.77
2023-05-11T00:25:56.147Z,92.26
2023-05-11T00:27:57.717Z,92.48
2023-05-11T00:29:59.229Z,92.26
2023-05-11T00:32:00.912Z,91.93
2023-05-11T00:34:02.496Z,93.39
2023-05-11T00:36:04.432Z,93.56
2023-05-11T00:38:06.074Z,94.28
2023-05-11T00:40:10.069Z,93.75
2023-05-11T00:42:11.798Z,94.13
2023-05-11T00:44:13.374Z,94.49
2023-05-11T00:46:15.024Z,94.16
2023-05-11T00:48:17.370Z,94.33
2023-05-11T00:50:19.447Z,93.95
2023-05-11T00:52:21.966Z,93.40
2023-05-11T00:54:23.626Z,94.54
2023-05-11T00:56:25.717Z,94.19
2023-05-11T00:58:27.301Z,94.15
2023-05-11T01:00:28.953Z,93.53
2023-05-11T01:02:31.204Z,95.05
2023-05-11T01:04:33.791Z,94.42
2023-05-11T01:06:47.263Z,94.34
2023-05-11T01:08:56.989Z,93.91
2023-05-11T01:11:23.592Z,94.08
2023-05-11T01:13:39.771Z,93.77
2023-05-11T01:15:41.228Z,93.80
2023-05-11T01:17:45.810Z,94.29
2023-05-11T01:19:58.653Z,94.16
2023-05-11T01:22:03.344Z,94.13
2023-05-11T01:24:23.032Z,93.95
2023-05-11T01:26:54.354Z,93.21
2023-05-11T01:29:10.739Z,94.54
2023-05-11T01:31:15.412Z,94.38
2023-05-11T01:33:24.951Z,93.85
2023-05-11T01:35:29.817Z,94.07
2023-05-11T01:37:33.694Z,94.08
2023-05-11T01:39:39.985Z,94.56
2023-05-11T01:41:45.732Z,94.43
2023-05-11T01:43:53.488Z,95.27
2023-05-11T01:46:00.534Z,94.35
2023-05-11T01:48:06.258Z,94.33
2023-05-11T01:50:09.262Z,93.31
2023-05-11T01:52:12.088Z,93.67
2023-05-11T01:54:19.198Z,94.18
2023-05-11T01:56:22.941Z,94.55
2023-05-11T01:58:25.998Z,93.99
2023-05-11T02:00:27.646Z,93.88
2023-05-11T02:02:30.327Z,94.10
2023-05-11T02:04:32.038Z,94.85
2023-05-11T02:06:35.719Z,94.39
2023-05-11T02:08:39.396Z,95.04
2023-05-11T02:10:42.230Z,94.07
2023-05-11T02:12:45.605Z,94.66
2023-05-11T02:14:48.822Z,94.47
2023-05-11T02:16:50.849Z,94.80
2023-05-11T02:18:54.534Z,95.11
2023-05-11T02:20:58.379Z,94.61
2023-05-11T02:23:01.072Z,94.15
2023-05-11T02:25:04.576Z,94.38
2023-05-11T02:27:06.348Z,94.33
2023-05-11T02:29:08.064Z,95.34
2023-05-11T02:31:16.759Z,93.90
2023-05-11T02:33:24.172Z,94.41
2023-05-11T02:35:29.295Z,95.07
2023-05-11T02:37:33.594Z,94.87
2023-05-11T02:39:36.571Z,94.81
2023-05-11T02:41:43.353Z,94.91
2023-05-11T02:43:47.396Z,94.83
2023-05-11T02:45:52.613Z,94.73
2023-05-11T02:47:56.673Z,94.91
2023-05-11T02:50:03.475Z,94.52
2023-05-11T02:52:06.327Z,94.52
2023-05-11T02:54:13.312Z,94.84
2023-05-11T02:56:15.434Z,94.29
2023-05-11T02:58:18.179Z,94.93
2023-05-11T03:00:20.312Z,94.32
2023-05-11T03:02:22.553Z,95.11
2023-05-11T03:04:24.638Z,95.01
2023-05-11T03:06:26.303Z,94.64
2023-05-11T03:08:27.850Z,94.13
2023-05-11T03:10:29.761Z,95.01
2023-05-11T03:12:35.276Z,94.91
2023-05-11T03:14:38.247Z,94.24
2023-05-11T03:16:41.193Z,95.20
2023-05-11T03:18:44.395Z,95.39
2023-05-11T03:20:47.562Z,95.68
2023-05-11T03:22:49.842Z,93.78
2023-05-11T03:24:52.463Z,94.48
2023-05-11T03:26:57.570Z,95.10
2023-05-11T03:29:00.940Z,94.49
2023-05-11T03:31:02.486Z,94.44
2023-05-11T03:33:04.224Z,94.77
2023-05-11T03:35:06.445Z,94.64
2023-05-11T03:37:11.990Z,94.26
2023-05-11T03:39:16.228Z,94.07
2023-05-11T03:41:18.186Z,94.31
2023-05-11T03:43:22.012Z,94.83
2023-05-11T03:45:26.112Z,94.58
2023-05-11T03:47:28.812Z,93.91
2023-05-11T03:49:34.008Z,94.40
2023-05-11T03:51:36.406Z,95.31
2023-05-11T03:53:38.557Z,95.07
2023-05-11T03:55:40.362Z,95.10
2023-05-11T03:57:42.066Z,94.66
2023-05-11T03:59:43.637Z,94.98
2023-05-11T04:01:45.600Z,94.30
2023-05-11T04:03:51.838Z,94.44
2023-05-11T04:05:53.580Z,94.87
2023-05-11T04:07:55.308Z,95.21
2023-05-11T04:09:56.815Z,95.05
2023-05-11T04:11:58.340Z,94.72
2023-05-11T04:13:59.917Z,94.24
2023-05-11T04:16:01.434Z,94.85
2023-05-11T04:18:03.240Z,94.02
2023-05-11T04:20:05.577Z,94.92
2023-05-11T04:22:07.132Z,94.69
2023-05-11T04:24:09.049Z,94.36
2023-05-11T04:26:10.569Z,94.67
2023-05-11T04:28:12.238Z,94.88
2023-05-11T04:30:13.930Z,95.02
2023-05-11T04:32:15.804Z,94.71
2023-05-11T04:34:17.337Z,95.02
2023-05-11T04:36:18.914Z,94.13
2023-05-11T04:38:22.352Z,94.20
2023-05-11T04:40:24.008Z,93.79
2023-05-11T04:42:25.710Z,93.65
2023-05-11T04:44:27.517Z,94.34
2023-05-11T04:46:29.128Z,94.94
2023-05-11T04:48:30.738Z,94.61
2023-05-11T04:50:32.828Z,94.48
2023-05-11T04:52:34.390Z,94.87
2023-05-11T04:54:36.911Z,94.24
2023-05-11T04:56:40.649Z,94.19
2023-05-11T04:58:42.301Z,94.08
2023-05-11T05:00:43.866Z,94.16
2023-05-11T05:02:45.544Z,93.61
2023-05-11T05:04:47.123Z,93.75
2023-05-11T05:06:48.612Z,92.83
2023-05-11T05:08:50.174Z,92.80
2023-05-11T05:10:51.722Z,93.58
2023-05-11T05:12:53.271Z,93.07
2023-05-11T05:14:54.807Z,93.00
2023-05-11T05:16:56.433Z,93.34
2023-05-11T05:18:58.032Z,93.19
2023-05-11T05:20:59.703Z,94.00
2023-05-11T05:23:02.014Z,92.58
2023-05-11T05:25:03.863Z,93.66
2023-05-11T05:27:05.568Z,93.07
2023-05-11T05:29:07.208Z,93.13
2023-05-11T05:31:08.856Z,93.53
2023-05-11T05:33:10.953Z,92.46
2023-05-11T05:35:12.668Z,92.39
2023-05-11T05:37:14.212Z,92.19
2023-05-11T05:39:15.837Z,92.19
2023-05-11T05:41:17.367Z,92.56
2023-05-11T05:43:18.868Z,92.33
2023-05-11T05:45:20.726Z,92.67
2023-05-11T05:47:22.375Z,92.71
2023-05-11T05:49:23.976Z,92.14
2023-05-11T05:51:25.607Z,91.82
2023-05-11T05:53:27.146Z,92.09
2023-05-11T05:55:28.696Z,91.34
2023-05-11T05:57:30.764Z,91.80
2023-05-11T05:59:32.505Z,91.29
2023-05-11T06:01:34.093Z,91.58
2023-05-11T06:03:36.110Z,92.77
2023-05-11T06:05:37.778Z,92.80
2023-05-11T06:07:39.338Z,93.32
2023-05-11T06:09:41.118Z,92.58
2023-05-11T06:11:42.709Z,92.26
2023-05-11T06:13:44.258Z,91.84
2023-05-11T06:15:45.801Z,91.56
2023-05-11T06:17:47.394Z,91.63
2023-05-11T06:19:49.921Z,91.75
2023-05-11T06:21:51.446Z,92.85
2023-05-11T06:23:52.971Z,91.76
2023-05-11T06:25:54.541Z,92.11
2023-05-11T06:27:56.082Z,92.18
2023-05-11T06:29:57.646Z,91.82
2023-05-11T06:31:59.193Z,91.18
2023-05-11T06:34:00.789Z,90.58
2023-05-11T06:36:06.617Z,90.42
2023-05-11T06:38:08.227Z,89.94
2023-05-11T06:40:10.413Z,89.58
2023-05-11T06:42:12.274Z,88.89
2023-05-11T06:44:13.871Z,88.62
2023-05-11T06:46:17.686Z,89.56
2023-05-11T06:48:20.094Z,89.10
2023-05-11T06:50:22.157Z,90.17
2023-05-11T06:52:24.558Z,87.93
2023-05-11T06:54:26.051Z,88.86
2023-05-11T06:56:29.085Z,89.08
2023-05-11T06:58:31.397Z,87.77
2023-05-11T07:00:32.908Z,87.06
2023-05-11T07:02:34.517Z,88.45
2023-05-11T07:04:36.202Z,86.75
2023-05-11T07:06:37.761Z,87.61
2023-05-11T07:08:39.359Z,88.25
2023-05-11T07:10:41.930Z,87.13
2023-05-11T07:12:43.612Z,87.62
2023-05-11T07:14:45.159Z,87.67
2023-05-11T07:16:46.766Z,88.28
2023-05-11T07:18:48.443Z,88.52
2023-05-11T07:20:50.191Z,87.61
2023-05-11T07:22:51.723Z,86.44
2023-05-11T07:24:53.302Z,87.40
2023-05-11T07:26:55.793Z,87.17
2023-05-11T07:28:57.871Z,88.17
2023-05-11T07:30:59.482Z,87.53
2023-05-11T07:33:01.138Z,87.27
2023-05-11T07:35:02.746Z,86.70
2023-05-11T07:37:04.254Z,86.93
2023-05-11T07:39:05.895Z,86.82
2023-05-11T07:41:08.867Z,88.57
2023-05-11T07:43:11.748Z,88.54
2023-05-11T07:45:13.314Z,87.57
2023-05-11T07:47:15.301Z,86.70
2023-05-11T07:49:20.834Z,87.66
2023-05-11T07:51:29.865Z,87.73
2023-05-11T07:53:31.603Z,86.10
2023-05-11T07:55:33.325Z,84.49
2023-05-11T07:57:34.959Z,83.76
2023-05-11T07:59:36.583Z,83.83
2023-05-11T08:01:38.396Z,83.45
2023-05-11T08:03:40.034Z,83.70
2023-05-11T08:05:41.746Z,82.48
2023-05-11T08:07:43.255Z,83.18
2023-05-11T08:09:44.841Z,81.94
2023-05-11T08:11:47.185Z,82.12
2023-05-11T08:13:48.761Z,80.80
2023-05-11T08:15:50.388Z,83.01
2023-05-11T08:17:51.998Z,81.95
2023-05-11T08:19:53.657Z,81.16
2023-05-11T08:21:55.351Z,82.35
2023-05-11T08:23:56.921Z,80.48
2023-05-11T08:25:58.457Z,80.19
2023-05-11T08:28:00.015Z,81.67
2023-05-11T08:30:01.655Z,82.60
2023-05-11T08:32:03.288Z,79.63
2023-05-11T08:34:15.485Z,79.29
2023-05-11T08:36:20.576Z,79.83
2023-05-11T08:38:22.074Z,78.67
2023-05-11T08:40:27.779Z,78.93
2023-05-11T08:42:33.058Z,78.88
2023-05-11T08:44:37.679Z,78.57
2023-05-11T08:46:41.793Z,76.45
2023-05-11T08:48:44.501Z,76.13
2023-05-11T08:50:46.604Z,77.43
2023-05-11T08:52:48.339Z,77.11
2023-05-11T08:54:49.954Z,77.63
2023-05-11T08:56:51.982Z,79.63
2023-05-11T08:58:57.807Z,74.02
2023-05-11T09:00:59.769Z,73.92
2023-05-11T09:03:02.465Z,72.20
2023-05-11T09:05:04.648Z,70.85
2023-05-11T09:07:06.887Z,73.74
2023-05-11T09:09:08.744Z,73.41
2023-05-11T09:11:10.839Z,72.20
2023-05-11T09:13:13.138Z,71.72
2023-05-11T09:15:14.755Z,70.38
2023-05-11T09:17:16.329Z,69.16
2023-05-11T09:19:17.917Z,69.34
2023-05-11T09:21:20.322Z,72.57
2023-05-11T09:23:29.241Z,72.22
2023-05-11T09:25:34.917Z,69.51
2023-05-11T09:27:42.055Z,70.45
2023-05-11T09:29:43.609Z,74.53
2023-05-11T09:31:48.726Z,72.05
2023-05-11T09:33:50.268Z,70.74
2023-05-11T09:35:52.677Z,68.42
2023-05-11T09:38:08.324Z,67.47
2023-05-11T09:40:26.402Z,67.76
2023-05-11T09:42:29.963Z,66.62
2023-05-11T09:44:31.979Z,69.74
2023-05-11T09:46:33.584Z,68.83
2023-05-11T09:48:35.859Z,66.55
2023-05-11T09:50:37.483Z,66.63
2023-05-11T09:52:51.036Z,70.52
2023-05-11T09:54:52.853Z,67.26
2023-05-11T09:56:56.760Z,66.55
2023-05-11T09:58:59.367Z,67.88
2023-05-11T10:01:00.953Z,70.43
2023-05-11T10:03:08.140Z,69.06
2023-05-11T10:05:13.193Z,68.68
2023-05-11T10:07:34.605Z,69.16
2023-05-11T10:09:36.636Z,68.11
2023-05-11T10:11:43.433Z,69.00
2023-05-11T10:13:45.947Z,70.14
2023-05-11T10:15:51.874Z,69.33
2023-05-11T10:17:58.365Z,70.46
2023-05-11T10:20:01.948Z,70.25
2023-05-11T10:22:05.827Z,70.54
2023-05-11T10:24:08.223Z,69.30
2023-05-11T10:26:11.068Z,69.16
2023-05-11T10:28:12.779Z,67.72
2023-05-11T10:30:14.629Z,70.27
2023-05-11T10:32:17.912Z,67.37
2023-05-11T10:34:20.537Z,67.94
2023-05-11T10:36:24.329Z,67.62
2023-05-11T10:38:26.168Z,68.49
2023-05-11T10:40:28.116Z,69.55
2023-05-11T10:42:44.876Z,68.38
2023-05-11T10:45:14.316Z,69.64
2023-05-11T10:47:55.243Z,68.63
2023-05-11T10:50:13.727Z,68.48
2023-05-11T10:52:44.141Z,67.62
2023-05-11T10:54:51.676Z,65.28
2023-05-11T10:57:14.960Z,67.22
2023-05-11T10:59:43.374Z,65.31
2023-05-11T11:01:46.458Z,65.05
2023-05-11T11:04:05.284Z,64.52
2023-05-11T11:06:23.207Z,65.64
2023-05-11T11:08:25.607Z,64.37
2023-05-11T11:10:50.216Z,62.85
2023-05-11T11:13:15.034Z,63.07
2023-05-11T11:15:17.017Z,62.06
2023-05-11T11:17:18.611Z,63.31
2023-05-11T11:19:31.875Z,63.06
2023-05-11T11:21:43.063Z,61.90
2023-05-11T11:23:50.379Z,63.30
2023-05-11T11:25:56.417Z,63.77
2023-05-11T11:27:58.784Z,62.68
2023-05-11T11:30:23.460Z,65.94
2023-05-11T11:32:26.395Z,61.65
2023-05-11T11:34:27.890Z,63.46
2023-05-11T11:37:06.277Z,61.32
2023-05-11T11:39:08.211Z,61.55
2023-05-11T11:41:09.787Z,62.71
2023-05-11T11:43:19.645Z,61.67
2023-05-11T11:45:30.305Z,59.89
2023-05-11T11:47:32.650Z,58.54
2023-05-11T11:49:34.355Z,59.84
2023-05-11T11:51:40.620Z,61.99
2023-05-11T11:53:43.704Z,59.72
2023-05-11T11:55:48.652Z,60.29
2023-05-11T11:57:51.428Z,59.21
2023-05-11T11:59:53.393Z,61.15
2023-05-11T12:01:56.278Z,58.21
2023-05-11T12:04:32.003Z,58.75
2023-05-11T12:06:38.800Z,60.56
2023-05-11T12:08:42.881Z,59.48
2023-05-11T12:10:46.537Z,59.13
2023-05-11T12:12:49.671Z,59.93
2023-05-11T12:14:51.283Z,60.80
2023-05-11T12:17:03.552Z,60.63
2023-05-11T12:19:05.254Z,61.56
2023-05-11T12:21:06.851Z,59.93
2023-05-11T12:23:11.222Z,59.87
2023-05-11T12:25:18.112Z,60.67
2023-05-11T12:27:20.077Z,60.12
2023-05-11T12:29:21.789Z,60.19
2023-05-11T12:31:23.349Z,60.59
2023-05-11T12:33:24.912Z,61.63
2023-05-11T12:35:29.710Z,60.95
2023-05-11T12:37:31.993Z,60.90
2023-05-11T12:39:36.041Z,62.73
2023-05-11T12:41:37.648Z,60.44
2023-05-11T12:43:39.300Z,61.18
2023-05-11T12:45:40.804Z,59.79
2023-05-11T12:47:42.507Z,62.64
2023-05-11T12:49:44.619Z,63.99
2023-05-11T12:51:56.099Z,65.71
2023-05-11T12:53:57.636Z,66.56
2023-05-11T12:55:59.954Z,67.17
2023-05-11T12:58:15.377Z,67.88
2023-05-11T13:00:18.528Z,70.20
2023-05-11T13:02:21.100Z,70.32
2023-05-11T13:04:32.627Z,70.29
2023-05-11T13:06:34.180Z,71.45
2023-05-11T13:08:37.632Z,71.83
2023-05-11T13:10:39.221Z,71.91
2023-05-11T13:12:51.790Z,73.30
2023-05-11T13:15:13.264Z,75.66
2023-05-11T13:17:35.349Z,76.74
2023-05-11T13:19:39.211Z,75.78
2023-05-11T13:21:40.717Z,76.12
2023-05-11T13:23:42.266Z,76.19
2023-05-11T13:25:46.576Z,76.52
2023-05-11T13:27:48.152Z,76.95
2023-05-11T13:29:49.702Z,76.09
2023-05-11T13:31:52.970Z,78.10
2023-05-11T13:33:54.561Z,80.25
2023-05-11T13:35:56.125Z,79.65
2023-05-11T13:37:58.625Z,80.33
2023-05-11T13:40:00.764Z,81.24
2023-05-11T13:42:02.433Z,79.20
2023-05-11T13:44:04.394Z,80.60
2023-05-11T13:46:05.994Z,80.74
2023-05-11T13:48:07.571Z,81.32
2023-05-11T13:50:09.434Z,80.43
2023-05-11T13:52:11.399Z,81.81
2023-05-11T13:54:13.294Z,82.25
2023-05-11T13:56:15.363Z,83.02
2023-05-11T13:58:18.011Z,83.65
2023-05-11T14:00:19.858Z,85.36
2023-05-11T14:02:21.427Z,84.46
2023-05-11T14:04:23.043Z,83.23
2023-05-11T14:06:28.507Z,85.22
2023-05-11T14:08:30.083Z,84.73
2023-05-11T14:10:31.596Z,84.11
2023-05-11T14:12:33.136Z,83.09
2023-05-11T14:14:34.699Z,84.36
2023-05-11T14:16:36.366Z,85.92
2023-05-11T14:18:38.031Z,85.71
2023-05-11T14:20:42.262Z,84.82
2023-05-11T14:22:43.881Z,86.28
2023-05-11T14:24:45.465Z,87.68
2023-05-11T14:26:47.292Z,87.82
2023-05-11T14:28:48.866Z,87.55
2023-05-11T14:30:51.138Z,86.90
2023-05-11T14:32:55.402Z,86.44
2023-05-11T14:34:56.942Z,86.25
2023-05-11T14:36:58.711Z,86.33
2023-05-11T14:39:00.227Z,87.38
2023-05-11T14:41:02.361Z,88.27
2023-05-11T14:43:04.262Z,86.73
2023-05-11T14:45:06.938Z,86.80
2023-05-11T14:47:08.823Z,88.05
2023-05-11T14:49:10.431Z,88.15
2023-05-11T14:51:11.989Z,88.15
2023-05-11T14:53:13.773Z,89.30
2023-05-11T14:55:15.406Z,87.83
2023-05-11T14:57:17.609Z,88.51
2023-05-11T14:59:20.048Z,88.59
2023-05-11T15:01:21.742Z,88.45
2023-05-11T15:03:25.038Z,87.17
2023-05-11T15:05:27.496Z,88.96
2023-05-11T15:07:29.016Z,87.62
2023-05-11T15:09:30.551Z,88.16
2023-05-11T15:11:32.103Z,89.38
2023-05-11T15:13:33.644Z,88.00
2023-05-11T15:15:35.189Z,86.24
2023-05-11T15:17:36.865Z,88.92
2023-05-11T15:19:38.450Z,88.02
2023-05-11T15:21:40.021Z,88.00
2023-05-11T15:23:41.532Z,87.81
2023-05-11T15:25:44.430Z,87.43
2023-05-11T15:27:46.073Z,87.44
2023-05-11T15:29:47.715Z,88.67
2023-05-11T15:31:49.334Z,87.91
2023-05-11T15:33:51.042Z,87.69
2023-05-11T15:35:52.982Z,88.01
2023-05-11T15:37:54.525Z,87.97
2023-05-11T15:39:56.283Z,87.54
2023-05-11T15:41:57.783Z,88.08
2023-05-11T15:43:59.314Z,88.34
2023-05-11T15:46:03.482Z,88.27
2023-05-11T15:48:05.520Z,88.14
2023-05-11T15:50:07.507Z,87.55
2023-05-11T15:52:09.038Z,87.60
2023-05-11T15:54:10.527Z,88.03
2023-05-11T15:56:12.316Z,87.47
2023-05-11T15:58:13.963Z,88.15
2023-05-11T16:00:16.428Z,87.60
2023-05-11T16:02:18.185Z,86.28
2023-05-11T16:04:19.729Z,86.84
2023-05-11T16:06:21.367Z,86.68
2023-05-11T16:08:22.944Z,87.53
2023-05-11T16:10:24.484Z,88.23
2023-05-11T16:12:26.177Z,87.75
2023-05-11T16:14:27.727Z,87.08
2023-05-11T16:16:29.549Z,85.98
2023-05-11T16:18:31.141Z,88.13
2023-05-11T16:20:32.732Z,87.51
2023-05-11T16:22:36.058Z,88.58
2023-05-11T16:24:37.669Z,87.63
2023-05-11T16:26:39.825Z,86.91
2023-05-11T16:28:41.755Z,88.15
2023-05-11T16:30:43.468Z,87.34
2023-05-11T16:32:45.050Z,86.78
2023-05-11T16:34:46.718Z,87.67
2023-05-11T16:36:48.249Z,87.45
2023-05-11T16:38:49.792Z,87.21
2023-05-11T16:40:51.363Z,87.32
2023-05-11T16:42:53.843Z,87.21
2023-05-11T16:44:55.375Z,88.44
2023-05-11T16:46:56.938Z,89.05
2023-05-11T16:48:58.748Z,87.91
2023-05-11T16:51:00.452Z,89.77
2023-05-11T16:53:03.295Z,88.89
2023-05-11T16:55:05.643Z,88.90
2023-05-11T16:57:07.301Z,89.57
2023-05-11T16:59:10.554Z,89.67
2023-05-11T17:01:12.348Z,90.81
2023-05-11T17:03:14.030Z,90.81
2023-05-11T17:05:18.010Z,90.46
2023-05-11T17:07:19.553Z,88.96
2023-05-11T17:09:21.151Z,89.66
2023-05-11T17:11:22.791Z,89.05
2023-05-11T17:13:24.326Z,87.62
2023-05-11T17:15:26.676Z,86.33
2023-05-11T17:17:28.522Z,87.26
2023-05-11T17:19:30.722Z,88.26
2023-05-11T17:21:32.439Z,89.38
2023-05-11T17:23:34.972Z,88.34
2023-05-11T17:25:36.542Z,88.19
2023-05-11T17:27:38.121Z,87.18
2023-05-11T17:29:43.420Z,86.51
2023-05-11T17:31:48.769Z,87.19
2023-05-11T17:33:50.728Z,88.99
2023-05-11T17:35:52.336Z,88.34
2023-05-11T17:37:53.864Z,88.25
2023-05-11T17:39:55.880Z,88.55
2023-05-11T17:41:57.873Z,89.16
2023-05-11T17:43:59.413Z,89.97
2023-05-11T17:46:03.990Z,89.60
2023-05-11T17:48:05.868Z,89.98
2023-05-11T17:50:07.904Z,90.22
2023-05-11T17:52:10.233Z,90.51
2023-05-11T17:54:12.082Z,89.53
2023-05-11T17:56:13.930Z,91.36
2023-05-11T17:58:15.642Z,91.72
2023-05-11T18:00:17.686Z,91.48
2023-05-11T18:02:19.391Z,91.66
2023-05-11T18:04:21.180Z,90.90
2023-05-11T18:06:22.729Z,91.72
2023-05-11T18:08:24.328Z,91.89
2023-05-11T18:10:25.980Z,91.90
2023-05-11T18:12:27.661Z,92.74
2023-05-11T18:14:29.205Z,92.57
2023-05-11T18:16:30.881Z,92.52
2023-05-11T18:18:32.655Z,92.63
2023-05-11T18:20:37.557Z,92.50
2023-05-11T18:22:39.344Z,92.57
2023-05-11T18:24:40.875Z,91.40
2023-05-11T18:26:42.443Z,90.97
2023-05-11T18:28:43.956Z,91.16
2023-05-11T18:30:45.593Z,91.25
2023-05-11T18:32:47.158Z,90.05
2023-05-11T18:34:48.704Z,91.22
2023-05-11T18:36:50.824Z,91.20
2023-05-11T18:38:52.405Z,90.50
2023-05-11T18:40:54.005Z,90.59
2023-05-11T18:42:56.120Z,92.22
2023-05-11T18:44:57.868Z,91.08
2023-05-11T18:46:59.512Z,91.11
2023-05-11T18:49:01.074Z,90.74
2023-05-11T18:51:02.903Z,91.69
2023-05-11T18:53:04.442Z,91.65
2023-05-11T18:55:06.494Z,91.24
2023-05-11T18:57:08.153Z,92.27
2023-05-11T18:59:09.713Z,91.35
2023-05-11T19:01:11.290Z,91.49
2023-05-11T19:03:14.633Z,92.54
2023-05-11T19:05:16.434Z,93.26
2023-05-11T19:07:19.985Z,92.91
2023-05-11T19:09:23.053Z,92.37
2023-05-11T19:11:25.602Z,93.33
2023-05-11T19:13:27.236Z,93.38
2023-05-11T19:15:28.729Z,94.27
2023-05-11T19:17:30.530Z,93.62
2023-05-11T19:19:32.070Z,93.58
2023-05-11T19:21:35.480Z,93.69
2023-05-11T19:23:37.052Z,93.48
2023-05-11T19:25:38.629Z,94.57
2023-05-11T19:27:40.255Z,94.28
2023-05-11T19:29:41.829Z,93.11
2023-05-11T19:31:43.780Z,93.31
2023-05-11T19:33:45.334Z,93.99
2023-05-11T19:35:46.854Z,93.20
2023-05-11T19:37:48.503Z,93.43
2023-05-11T19:39:50.101Z,93.25
2023-05-11T19:41:51.657Z,92.81
2023-05-11T19:43:53.230Z,93.35
2023-05-11T19:45:55.511Z,94.38
2023-05-11T19:47:58.582Z,95.24
2023-05-11T19:50:00.166Z,93.32
2023-05-11T19:52:01.769Z,94.21
2023-05-11T19:54:03.338Z,94.16
2023-05-11T19:56:04.902Z,94.88
2023-05-11T19:58:06.970Z,94.61
2023-05-11T20:00:09.824Z,95.26
2023-05-11T20:02:11.463Z,95.09
2023-05-11T20:04:14.841Z,94.84
2023-05-11T20:06:16.690Z,93.66
2023-05-11T20:08:19.065Z,93.80
2023-05-11T20:10:21.020Z,94.59
2023-05-11T20:12:22.784Z,94.36
2023-05-11T20:14:24.507Z,95.23
2023-05-11T20:16:27.252Z,94.83
2023-05-11T20:18:29.058Z,94.85
2023-05-11T20:20:31.589Z,95.61
2023-05-11T20:22:33.168Z,95.04
2023-05-11T20:24:34.696Z,94.58
2023-05-11T20:26:39.876Z,95.27
2023-05-11T20:28:41.662Z,95.63
2023-05-11T20:30:43.208Z,95.88
2023-05-11T20:34:52.924Z,95.47
2023-05-11T20:36:54.435Z,95.87
2023-05-11T20:38:55.958Z,96.41
2023-05-11T20:40:58.095Z,96.04
2023-05-11T20:42:59.619Z,95.58
2023-05-11T20:45:07.119Z,95.78
2023-05-11T20:47:08.997Z,96.47
2023-05-11T20:49:16.740Z,96.24
2023-05-11T20:51:23.923Z,95.79
2023-05-11T20:53:26.603Z,95.86
2023-05-11T20:55:28.177Z,96.28
2023-05-11T20:57:29.748Z,96.38
2023-05-11T21:01:36.328Z,96.13
2023-05-11T21:03:38.018Z,96.63
2023-05-11T21:05:39.630Z,95.90
2023-05-11T21:07:41.246Z,96.08
2023-05-11T21:09:44.507Z,95.57
2023-05-11T21:11:48.301Z,96.37
2023-05-11T21:13:49.870Z,95.81
2023-05-11T21:15:51.568Z,96.13
2023-05-11T21:17:53.418Z,95.96
2023-05-11T21:19:55.012Z,96.98
2023-05-11T21:21:56.623Z,96.59
2023-05-11T21:23:58.829Z,96.50
2023-05-11T21:26:00.394Z,96.11
2023-05-11T21:28:01.972Z,96.73
2023-05-11T21:30:03.737Z,96.83
2023-05-11T21:32:07.853Z,96.45
2023-05-11T21:34:09.387Z,96.35
2023-05-11T21:36:10.898Z,96.33
2023-05-11T21:38:15.043Z,96.30
2023-05-11T21:40:18.062Z,96.50
2023-05-11T21:42:19.889Z,97.07
2023-05-11T21:44:21.505Z,95.59
2023-05-11T21:46:23.145Z,96.33
2023-05-11T21:48:24.845Z,96.48
2023-05-11T21:50:26.588Z,96.75
2023-05-11T21:52:28.132Z,96.55
2023-05-11T21:54:29.678Z,96.64
2023-05-11T21:56:31.392Z,96.08
2023-05-11T21:58:33.088Z,96.37
2023-05-11T22:00:34.983Z,95.80
2023-05-11T22:02:38.012Z,96.22
2023-05-11T22:04:39.672Z,95.99
2023-05-11T22:06:41.260Z,96.76
2023-05-11T22:08:42.778Z,96.40
2023-05-11T22:10:44.391Z,96.27
2023-05-11T22:12:45.987Z,96.75
2023-05-11T22:14:47.497Z,97.17
2023-05-11T22:16:49.046Z,96.43
2023-05-11T22:18:50.879Z,97.90
2023-05-11T22:20:52.475Z,97.34
2023-05-11T22:22:54.014Z,97.59
2023-05-11T22:24:55.582Z,97.05
2023-05-11T22:26:57.237Z,97.20
2023-05-11T22:28:58.731Z,97.71
2023-05-11T22:31:00.757Z,97.39
2023-05-11T22:33:02.340Z,97.96
2023-05-11T22:35:04.279Z,97.31
2023-05-11T22:37:05.855Z,97.75
2023-05-11T22:39:07.413Z,97.87
2023-05-11T22:41:09.053Z,97.41
2023-05-11T22:43:10.651Z,97.33
2023-05-11T22:45:12.208Z,98.42
2023-05-11T22:47:13.928Z,98.00
2023-05-11T22:49:16.172Z,97.99
2023-05-11T22:51:18.162Z,97.28
2023-05-11T22:53:20.916Z,97.51
2023-05-11T22:55:22.860Z,98.11
2023-05-11T22:57:26.287Z,98.24
2023-05-11T22:59:27.797Z,98.91
2023-05-11T23:01:29.375Z,99.41
2023-05-11T23:03:30.934Z,99.81
2023-05-11T23:05:32.497Z,98.30
2023-05-11T23:07:34.132Z,97.76
2023-05-11T23:09:35.725Z,98.83
2023-05-11T23:11:37.263Z,98.02
2023-05-11T23:13:40.024Z,98.35
2023-05-11T23:15:42.551Z,99.49
2023-05-11T23:17:44.202Z,99.46
2023-05-11T23:19:45.875Z,99.71
2023-05-11T23:21:47.382Z,99.82
2023-05-11T23:23:48.884Z,99.51
2023-05-11T23:25:50.464Z,99.73
2023-05-11T23:27:55.511Z,98.83
2023-05-11T23:29:57.012Z,99.61
2023-05-11T23:31:58.591Z,99.43
2023-05-11T23:34:00.684Z,99.19
2023-05-11T23:36:02.230Z,98.78
2023-05-11T23:38:04.436Z,98.63
2023-05-11T23:40:07.265Z,98.70
2023-05-11T23:42:09.196Z,98.71
2023-05-11T23:44:10.969Z,99.09
2023-05-11T23:46:12.469Z,98.44
2023-05-11T23:48:14.139Z,99.00
2023-05-11T23:50:15.834Z,98.67
2023-05-11T23:52:17.347Z,98.55
2023-05-11T23:54:19.044Z,98.47
2023-05-11T23:56:21.660Z,99.52
2023-05-11T23:58:23.175Z,98.86
